Lore City, Ohio
Current Conditions -  °F | °C
As of 11:53 AM on Thursday 30 Oct 2014 (Local Time) from KZZV Reporting Station
Few Clouds Few Clouds  
Wind Chill: 47°   Ceiling: Unl
Heat Index: 49°   Visibility: 10mi
Dew Point: 37°   Wind: 5mph
Humidity: 64%   Direction: 210°SSW
Pressure: 30.14"   Gusts: NA
Location:  39.98°N, 81.46°W
Report Text: KZZV 301553Z AUTO 21004KT 10SM FEW025 09/03 A3014 RMK AO2 SLP209 T00940028
Loading
Personal Weather Stations






























Interactive Weather Map
Tropical Storm Tracking
New forecast layout! Learn more

10-Day Weather Forecast

Advertisements
Track Severe Weather on mobile